sensor_id;sensor_type;location;lat;lon;timestamp;P1;durP1;ratioP1;P2;durP2;ratioP2
48987;SDS011;34799;51.440;-2.534;2023-09-18T00:00:46;18.35;;;9.88;;
48987;SDS011;34799;51.440;-2.534;2023-09-18T00:03:19;15.82;;;9.30;;
48987;SDS011;34799;51.440;-2.534;2023-09-18T00:05:47;15.68;;;9.55;;
48987;SDS011;34799;51.440;-2.534;2023-09-18T00:08:14;19.42;;;9.88;;
48987;SDS011;34799;51.440;-2.534;2023-09-18T00:10:42;18.35;;;9.93;;
48987;SDS011;34799;51.440;-2.534;2023-09-18T00:13:14;16.60;;;10.52;;
48987;SDS011;34799;51.440;-2.534;2023-09-18T00:15:41;16.83;;;9.57;;
48987;SDS011;34799;51.440;-2.534;2023-09-18T00:18:10;17.10;;;10.13;;
48987;SDS011;34799;51.440;-2.534;2023-09-18T00:20:37;18.75;;;9.77;;
48987;SDS011;34799;51.440;-2.534;2023-09-18T00:23:04;14.88;;;9.98;;
48987;SDS011;34799;51.440;-2.534;2023-09-18T00:25:32;22.98;;;10.23;;
48987;SDS011;34799;51.440;-2.534;2023-09-18T00:27:59;21.88;;;10.55;;
48987;SDS011;34799;51.440;-2.534;2023-09-18T00:30:26;12.85;;;9.55;;
48987;SDS011;34799;51.440;-2.534;2023-09-18T00:32:54;16.13;;;10.13;;
48987;SDS011;34799;51.440;-2.534;2023-09-18T00:35:21;19.92;;;10.63;;
48987;SDS011;34799;51.440;-2.534;2023-09-18T00:37:50;18.63;;;10.07;;
48987;SDS011;34799;51.440;-2.534;2023-09-18T00:40:18;13.75;;;9.65;;
48987;SDS011;34799;51.440;-2.534;2023-09-18T00:42:46;17.45;;;10.60;;
48987;SDS011;34799;51.440;-2.534;2023-09-18T00:45:14;13.63;;;9.98;;
48987;SDS011;34799;51.440;-2.534;2023-09-18T00:47:42;17.42;;;10.63;;
48987;SDS011;34799;51.440;-2.534;2023-09-18T00:50:10;19.85;;;10.15;;
48987;SDS011;34799;51.440;-2.534;2023-09-18T00:52:39;19.02;;;11.15;;
48987;SDS011;34799;51.440;-2.534;2023-09-18T00:55:08;16.05;;;10.38;;
48987;SDS011;34799;51.440;-2.534;2023-09-18T00:57:36;15.82;;;9.77;;
48987;SDS011;34799;51.440;-2.534;2023-09-18T01:00:03;15.57;;;10.05;;
48987;SDS011;34799;51.440;-2.534;2023-09-18T01:02:32;15.98;;;10.45;;
48987;SDS011;34799;51.440;-2.534;2023-09-18T01:04:59;17.30;;;10.15;;
48987;SDS011;34799;51.440;-2.534;2023-09-18T01:07:27;19.50;;;10.95;;
48987;SDS011;34799;51.440;-2.534;2023-09-18T01:09:55;13.57;;;9.50;;
48987;SDS011;34799;51.440;-2.534;2023-09-18T01:17:35;17.02;;;10.30;;
48987;SDS011;34799;51.440;-2.534;2023-09-18T01:20:10;20.65;;;11.38;;
48987;SDS011;34799;51.440;-2.534;2023-09-18T01:22:39;16.73;;;10.55;;
48987;SDS011;34799;51.440;-2.534;2023-09-18T01:25:07;24.65;;;11.10;;
48987;SDS011;34799;51.440;-2.534;2023-09-18T01:27:35;19.02;;;11.27;;
48987;SDS011;34799;51.440;-2.534;2023-09-18T01:30:03;18.13;;;10.80;;
48987;SDS011;34799;51.440;-2.534;2023-09-18T01:32:31;17.13;;;10.57;;
48987;SDS011;34799;51.440;-2.534;2023-09-18T01:35:00;18.92;;;10.48;;
48987;SDS011;34799;51.440;-2.534;2023-09-18T01:37:32;14.35;;;9.32;;
48987;SDS011;34799;51.440;-2.534;2023-09-18T01:40:03;14.18;;;9.63;;
48987;SDS011;34799;51.440;-2.534;2023-09-18T01:42:35;14.13;;;9.00;;
48987;SDS011;34799;51.440;-2.534;2023-09-18T01:45:02;13.27;;;9.23;;
48987;SDS011;34799;51.440;-2.534;2023-09-18T01:47:32;17.45;;;8.95;;
48987;SDS011;34799;51.440;-2.534;2023-09-18T01:50:02;13.95;;;8.20;;
48987;SDS011;34799;51.440;-2.534;2023-09-18T01:52:32;14.40;;;8.55;;
48987;SDS011;34799;51.440;-2.534;2023-09-18T01:55:02;11.90;;;8.02;;
48987;SDS011;34799;51.440;-2.534;2023-09-18T01:57:32;14.80;;;7.97;;
48987;SDS011;34799;51.440;-2.534;2023-09-18T02:00:00;17.27;;;8.90;;
48987;SDS011;34799;51.440;-2.534;2023-09-18T02:02:27;18.50;;;8.30;;
48987;SDS011;34799;51.440;-2.534;2023-09-18T02:04:54;14.57;;;7.97;;
48987;SDS011;34799;51.440;-2.534;2023-09-18T02:07:24;12.98;;;7.72;;
48987;SDS011;34799;51.440;-2.534;2023-09-18T02:09:51;11.68;;;8.55;;
48987;SDS011;34799;51.440;-2.534;2023-09-18T02:12:18;13.45;;;8.13;;
48987;SDS011;34799;51.440;-2.534;2023-09-18T02:14:47;13.63;;;8.10;;
48987;SDS011;34799;51.440;-2.534;2023-09-18T02:17:14;11.55;;;8.32;;
48987;SDS011;34799;51.440;-2.534;2023-09-18T02:19:42;14.20;;;8.50;;
48987;SDS011;34799;51.440;-2.534;2023-09-18T02:22:09;13.63;;;8.65;;
48987;SDS011;34799;51.440;-2.534;2023-09-18T02:24:37;16.98;;;9.02;;
48987;SDS011;34799;51.440;-2.534;2023-09-18T02:27:05;17.17;;;9.23;;
48987;SDS011;34799;51.440;-2.534;2023-09-18T02:29:33;14.77;;;9.27;;
48987;SDS011;34799;51.440;-2.534;2023-09-18T02:32:01;15.65;;;8.57;;
48987;SDS011;34799;51.440;-2.534;2023-09-18T02:34:29;16.27;;;8.93;;
48987;SDS011;34799;51.440;-2.534;2023-09-18T02:36:57;13.63;;;8.68;;
48987;SDS011;34799;51.440;-2.534;2023-09-18T02:39:25;14.40;;;8.10;;
48987;SDS011;34799;51.440;-2.534;2023-09-18T02:41:53;12.65;;;8.07;;
48987;SDS011;34799;51.440;-2.534;2023-09-18T02:44:22;12.15;;;7.68;;
48987;SDS011;34799;51.440;-2.534;2023-09-18T02:46:50;16.52;;;7.50;;
48987;SDS011;34799;51.440;-2.534;2023-09-18T02:49:18;9.55;;;7.35;;
48987;SDS011;34799;51.440;-2.534;2023-09-18T02:51:46;15.00;;;7.88;;
48987;SDS011;34799;51.440;-2.534;2023-09-18T02:54:14;12.80;;;7.15;;
48987;SDS011;34799;51.440;-2.534;2023-09-18T02:56:41;10.52;;;6.40;;
48987;SDS011;34799;51.440;-2.534;2023-09-18T02:59:09;7.47;;;4.43;;
48987;SDS011;34799;51.440;-2.534;2023-09-18T03:01:37;9.02;;;5.15;;
48987;SDS011;34799;51.440;-2.534;2023-09-18T03:04:05;5.30;;;4.18;;
48987;SDS011;34799;51.440;-2.534;2023-09-18T03:06:33;8.50;;;4.10;;
48987;SDS011;34799;51.440;-2.534;2023-09-18T03:09:01;9.88;;;4.07;;
48987;SDS011;34799;51.440;-2.534;2023-09-18T03:11:29;6.78;;;4.45;;
48987;SDS011;34799;51.440;-2.534;2023-09-18T03:13:57;6.80;;;4.63;;
48987;SDS011;34799;51.440;-2.534;2023-09-18T03:16:25;8.88;;;4.38;;
48987;SDS011;34799;51.440;-2.534;2023-09-18T03:18:53;7.38;;;5.35;;
48987;SDS011;34799;51.440;-2.534;2023-09-18T03:21:21;8.88;;;4.80;;
48987;SDS011;34799;51.440;-2.534;2023-09-18T03:23:49;9.95;;;5.53;;
48987;SDS011;34799;51.440;-2.534;2023-09-18T03:26:17;11.30;;;6.18;;
48987;SDS011;34799;51.440;-2.534;2023-09-18T03:28:45;9.00;;;5.25;;
48987;SDS011;34799;51.440;-2.534;2023-09-18T03:31:13;9.50;;;5.28;;
48987;SDS011;34799;51.440;-2.534;2023-09-18T03:33:41;9.90;;;5.80;;
48987;SDS011;34799;51.440;-2.534;2023-09-18T03:36:08;8.80;;;5.43;;
48987;SDS011;34799;51.440;-2.534;2023-09-18T03:38:37;8.85;;;5.80;;
48987;SDS011;34799;51.440;-2.534;2023-09-18T03:41:06;8.25;;;5.50;;
48987;SDS011;34799;51.440;-2.534;2023-09-18T03:43:33;9.60;;;5.35;;
48987;SDS011;34799;51.440;-2.534;2023-09-18T03:46:04;8.52;;;5.40;;
48987;SDS011;34799;51.440;-2.534;2023-09-18T03:48:37;9.73;;;5.20;;
48987;SDS011;34799;51.440;-2.534;2023-09-18T03:51:06;11.07;;;4.72;;
48987;SDS011;34799;51.440;-2.534;2023-09-18T03:53:34;6.95;;;4.10;;
48987;SDS011;34799;51.440;-2.534;2023-09-18T03:56:02;7.10;;;3.50;;
48987;SDS011;34799;51.440;-2.534;2023-09-18T03:58:30;6.47;;;3.88;;
48987;SDS011;34799;51.440;-2.534;2023-09-18T04:00:58;7.57;;;3.65;;
48987;SDS011;34799;51.440;-2.534;2023-09-18T04:03:25;8.75;;;3.88;;
48987;SDS011;34799;51.440;-2.534;2023-09-18T04:05:54;5.22;;;3.50;;
48987;SDS011;34799;51.440;-2.534;2023-09-18T04:08:22;6.00;;;3.20;;
48987;SDS011;34799;51.440;-2.534;2023-09-18T04:10:49;7.95;;;4.05;;
48987;SDS011;34799;51.440;-2.534;2023-09-18T04:13:17;7.43;;;4.43;;
48987;SDS011;34799;51.440;-2.534;2023-09-18T04:15:45;8.15;;;4.32;;
48987;SDS011;34799;51.440;-2.534;2023-09-18T04:18:13;8.68;;;5.15;;
48987;SDS011;34799;51.440;-2.534;2023-09-18T04:20:41;8.70;;;4.53;;
48987;SDS011;34799;51.440;-2.534;2023-09-18T04:25:48;8.23;;;4.93;;
48987;SDS011;34799;51.440;-2.534;2023-09-18T04:28:17;7.20;;;4.90;;
48987;SDS011;34799;51.440;-2.534;2023-09-18T04:30:45;6.15;;;4.30;;
48987;SDS011;34799;51.440;-2.534;2023-09-18T04:33:13;7.00;;;5.18;;
48987;SDS011;34799;51.440;-2.534;2023-09-18T04:35:41;7.60;;;4.53;;
48987;SDS011;34799;51.440;-2.534;2023-09-18T04:38:10;6.50;;;4.35;;
48987;SDS011;34799;51.440;-2.534;2023-09-18T04:40:37;7.85;;;4.70;;
48987;SDS011;34799;51.440;-2.534;2023-09-18T04:43:06;8.98;;;5.10;;
48987;SDS011;34799;51.440;-2.534;2023-09-18T04:45:34;8.88;;;4.60;;
48987;SDS011;34799;51.440;-2.534;2023-09-18T04:48:01;11.85;;;4.70;;
48987;SDS011;34799;51.440;-2.534;2023-09-18T04:50:30;8.20;;;4.82;;
48987;SDS011;34799;51.440;-2.534;2023-09-18T04:52:57;9.25;;;5.45;;
48987;SDS011;34799;51.440;-2.534;2023-09-18T04:55:25;7.78;;;5.20;;
48987;SDS011;34799;51.440;-2.534;2023-09-18T04:57:52;11.07;;;5.72;;
48987;SDS011;34799;51.440;-2.534;2023-09-18T05:00:20;9.88;;;4.80;;
48987;SDS011;34799;51.440;-2.534;2023-09-18T05:02:51;7.78;;;4.93;;
48987;SDS011;34799;51.440;-2.534;2023-09-18T05:05:18;8.75;;;4.95;;
48987;SDS011;34799;51.440;-2.534;2023-09-18T05:07:46;7.90;;;5.30;;
48987;SDS011;34799;51.440;-2.534;2023-09-18T05:10:13;8.55;;;4.90;;
48987;SDS011;34799;51.440;-2.534;2023-09-18T05:12:40;6.68;;;4.25;;
48987;SDS011;34799;51.440;-2.534;2023-09-18T05:15:07;8.18;;;4.80;;
48987;SDS011;34799;51.440;-2.534;2023-09-18T05:17:46;8.45;;;4.43;;
48987;SDS011;34799;51.440;-2.534;2023-09-18T05:20:15;9.38;;;5.20;;
48987;SDS011;34799;51.440;-2.534;2023-09-18T05:22:43;7.18;;;4.63;;
48987;SDS011;34799;51.440;-2.534;2023-09-18T05:25:11;8.00;;;4.95;;
48987;SDS011;34799;51.440;-2.534;2023-09-18T05:27:42;7.00;;;5.30;;
48987;SDS011;34799;51.440;-2.534;2023-09-18T05:30:15;8.25;;;4.75;;
48987;SDS011;34799;51.440;-2.534;2023-09-18T05:32:48;8.07;;;5.13;;
48987;SDS011;34799;51.440;-2.534;2023-09-18T05:35:16;9.10;;;4.65;;
48987;SDS011;34799;51.440;-2.534;2023-09-18T05:37:45;11.75;;;4.63;;
48987;SDS011;34799;51.440;-2.534;2023-09-18T05:40:13;11.75;;;5.22;;
48987;SDS011;34799;51.440;-2.534;2023-09-18T05:42:41;12.95;;;5.28;;
48987;SDS011;34799;51.440;-2.534;2023-09-18T05:45:10;8.32;;;5.40;;
48987;SDS011;34799;51.440;-2.534;2023-09-18T05:47:38;9.85;;;5.00;;
48987;SDS011;34799;51.440;-2.534;2023-09-18T05:50:06;9.77;;;5.13;;
48987;SDS011;34799;51.440;-2.534;2023-09-18T05:52:45;9.57;;;5.25;;
48987;SDS011;34799;51.440;-2.534;2023-09-18T05:55:14;8.35;;;4.65;;
48987;SDS011;34799;51.440;-2.534;2023-09-18T05:57:42;7.80;;;4.43;;
48987;SDS011;34799;51.440;-2.534;2023-09-18T06:00:09;8.05;;;4.80;;
48987;SDS011;34799;51.440;-2.534;2023-09-18T06:02:41;8.15;;;5.60;;
48987;SDS011;34799;51.440;-2.534;2023-09-18T06:05:09;10.45;;;4.65;;
48987;SDS011;34799;51.440;-2.534;2023-09-18T06:07:38;8.18;;;5.38;;
48987;SDS011;34799;51.440;-2.534;2023-09-18T06:10:06;10.18;;;5.28;;
48987;SDS011;34799;51.440;-2.534;2023-09-18T06:12:34;14.98;;;5.40;;
48987;SDS011;34799;51.440;-2.534;2023-09-18T06:15:05;8.23;;;5.63;;
48987;SDS011;34799;51.440;-2.534;2023-09-18T06:17:38;9.88;;;5.15;;
48987;SDS011;34799;51.440;-2.534;2023-09-18T06:20:08;9.93;;;5.40;;
48987;SDS011;34799;51.440;-2.534;2023-09-18T06:22:37;8.00;;;5.75;;
48987;SDS011;34799;51.440;-2.534;2023-09-18T06:25:06;9.50;;;5.38;;
48987;SDS011;34799;51.440;-2.534;2023-09-18T06:27:34;9.30;;;5.65;;
48987;SDS011;34799;51.440;-2.534;2023-09-18T06:30:03;13.65;;;5.72;;
48987;SDS011;34799;51.440;-2.534;2023-09-18T06:32:31;9.55;;;5.70;;
48987;SDS011;34799;51.440;-2.534;2023-09-18T06:34:59;11.07;;;7.20;;
48987;SDS011;34799;51.440;-2.534;2023-09-18T06:37:28;10.75;;;6.18;;
48987;SDS011;34799;51.440;-2.534;2023-09-18T06:39:55;9.45;;;6.15;;
48987;SDS011;34799;51.440;-2.534;2023-09-18T06:42:23;10.80;;;5.47;;
48987;SDS011;34799;51.440;-2.534;2023-09-18T06:44:57;6.75;;;4.68;;
48987;SDS011;34799;51.440;-2.534;2023-09-18T06:47:25;10.50;;;5.18;;
48987;SDS011;34799;51.440;-2.534;2023-09-18T06:49:52;8.73;;;4.53;;
48987;SDS011;34799;51.440;-2.534;2023-09-18T06:52:20;7.10;;;4.30;;
48987;SDS011;34799;51.440;-2.534;2023-09-18T06:54:48;7.78;;;4.32;;
48987;SDS011;34799;51.440;-2.534;2023-09-18T06:57:16;7.88;;;4.18;;
48987;SDS011;34799;51.440;-2.534;2023-09-18T06:59:44;6.32;;;4.50;;
48987;SDS011;34799;51.440;-2.534;2023-09-18T07:02:12;7.78;;;4.03;;
48987;SDS011;34799;51.440;-2.534;2023-09-18T07:04:41;6.15;;;4.03;;
48987;SDS011;34799;51.440;-2.534;2023-09-18T07:07:13;7.93;;;3.53;;
48987;SDS011;34799;51.440;-2.534;2023-09-18T07:09:40;10.73;;;3.75;;
48987;SDS011;34799;51.440;-2.534;2023-09-18T07:12:16;4.90;;;2.97;;
48987;SDS011;34799;51.440;-2.534;2023-09-18T07:14:48;7.07;;;2.53;;
48987;SDS011;34799;51.440;-2.534;2023-09-18T07:17:16;6.57;;;2.70;;
48987;SDS011;34799;51.440;-2.534;2023-09-18T07:19:43;7.13;;;2.85;;
48987;SDS011;34799;51.440;-2.534;2023-09-18T07:22:11;6.57;;;2.65;;
48987;SDS011;34799;51.440;-2.534;2023-09-18T07:24:39;5.80;;;2.50;;
48987;SDS011;34799;51.440;-2.534;2023-09-18T07:27:08;6.60;;;3.00;;
48987;SDS011;34799;51.440;-2.534;2023-09-18T07:29:36;6.65;;;2.55;;
48987;SDS011;34799;51.440;-2.534;2023-09-18T07:32:05;4.38;;;2.22;;
48987;SDS011;34799;51.440;-2.534;2023-09-18T07:34:33;5.78;;;2.60;;
48987;SDS011;34799;51.440;-2.534;2023-09-18T07:37:01;7.15;;;2.10;;
48987;SDS011;34799;51.440;-2.534;2023-09-18T07:39:29;7.10;;;2.65;;
48987;SDS011;34799;51.440;-2.534;2023-09-18T07:41:57;7.22;;;2.65;;
48987;SDS011;34799;51.440;-2.534;2023-09-18T07:44:25;4.65;;;2.30;;
48987;SDS011;34799;51.440;-2.534;2023-09-18T07:46:53;7.38;;;2.28;;
48987;SDS011;34799;51.440;-2.534;2023-09-18T07:49:21;7.05;;;2.97;;
48987;SDS011;34799;51.440;-2.534;2023-09-18T07:51:49;6.50;;;2.55;;
48987;SDS011;34799;51.440;-2.534;2023-09-18T07:54:17;7.57;;;2.88;;
48987;SDS011;34799;51.440;-2.534;2023-09-18T07:56:45;8.65;;;4.55;;
48987;SDS011;34799;51.440;-2.534;2023-09-18T07:59:12;10.65;;;5.32;;
48987;SDS011;34799;51.440;-2.534;2023-09-18T08:01:41;16.08;;;5.20;;
48987;SDS011;34799;51.440;-2.534;2023-09-18T08:04:08;9.88;;;3.22;;
48987;SDS011;34799;51.440;-2.534;2023-09-18T08:06:36;7.03;;;2.53;;
48987;SDS011;34799;51.440;-2.534;2023-09-18T08:09:05;6.15;;;1.45;;
48987;SDS011;34799;51.440;-2.534;2023-09-18T08:11:32;9.73;;;1.65;;
48987;SDS011;34799;51.440;-2.534;2023-09-18T08:14:00;3.65;;;1.38;;
48987;SDS011;34799;51.440;-2.534;2023-09-18T08:16:28;4.45;;;1.83;;
48987;SDS011;34799;51.440;-2.534;2023-09-18T08:18:56;4.88;;;1.13;;
48987;SDS011;34799;51.440;-2.534;2023-09-18T08:21:24;6.15;;;1.58;;
48987;SDS011;34799;51.440;-2.534;2023-09-18T08:23:51;4.75;;;1.10;;
48987;SDS011;34799;51.440;-2.534;2023-09-18T08:26:19;8.32;;;1.40;;
48987;SDS011;34799;51.440;-2.534;2023-09-18T08:28:47;5.40;;;1.25;;
48987;SDS011;34799;51.440;-2.534;2023-09-18T08:31:15;4.95;;;1.27;;
48987;SDS011;34799;51.440;-2.534;2023-09-18T08:33:43;5.28;;;0.88;;
48987;SDS011;34799;51.440;-2.534;2023-09-18T08:36:11;3.90;;;0.90;;
48987;SDS011;34799;51.440;-2.534;2023-09-18T08:38:39;5.32;;;0.93;;
48987;SDS011;34799;51.440;-2.534;2023-09-18T08:41:07;3.78;;;0.80;;
48987;SDS011;34799;51.440;-2.534;2023-09-18T08:43:35;7.85;;;1.00;;
48987;SDS011;34799;51.440;-2.534;2023-09-18T08:46:05;3.38;;;1.10;;
48987;SDS011;34799;51.440;-2.534;2023-09-18T08:48:33;5.03;;;0.80;;
48987;SDS011;34799;51.440;-2.534;2023-09-18T08:51:05;5.68;;;1.00;;
48987;SDS011;34799;51.440;-2.534;2023-09-18T08:53:34;3.58;;;1.02;;
48987;SDS011;34799;51.440;-2.534;2023-09-18T08:56:04;5.20;;;0.90;;
48987;SDS011;34799;51.440;-2.534;2023-09-18T08:58:33;5.40;;;1.85;;
48987;SDS011;34799;51.440;-2.534;2023-09-18T09:01:03;8.02;;;1.80;;
48987;SDS011;34799;51.440;-2.534;2023-09-18T09:03:32;7.22;;;1.35;;
48987;SDS011;34799;51.440;-2.534;2023-09-18T09:06:01;4.88;;;0.93;;
48987;SDS011;34799;51.440;-2.534;2023-09-18T09:08:28;2.97;;;0.70;;
48987;SDS011;34799;51.440;-2.534;2023-09-18T09:10:56;4.35;;;1.20;;
48987;SDS011;34799;51.440;-2.534;2023-09-18T09:13:27;3.97;;;0.68;;
48987;SDS011;34799;51.440;-2.534;2023-09-18T09:16:00;4.80;;;0.65;;
48987;SDS011;34799;51.440;-2.534;2023-09-18T09:18:28;4.10;;;1.40;;
48987;SDS011;34799;51.440;-2.534;2023-09-18T09:20:56;2.88;;;0.85;;
48987;SDS011;34799;51.440;-2.534;2023-09-18T09:23:26;2.78;;;0.70;;
48987;SDS011;34799;51.440;-2.534;2023-09-18T09:26:14;8.00;;;0.70;;
48987;SDS011;34799;51.440;-2.534;2023-09-18T09:28:44;3.40;;;0.43;;
48987;SDS011;34799;51.440;-2.534;2023-09-18T09:31:22;2.95;;;0.47;;
48987;SDS011;34799;51.440;-2.534;2023-09-18T09:33:54;2.50;;;0.50;;
48987;SDS011;34799;51.440;-2.534;2023-09-18T09:36:23;1.27;;;0.20;;
48987;SDS011;34799;51.440;-2.534;2023-09-18T09:38:54;4.78;;;0.40;;
48987;SDS011;34799;51.440;-2.534;2023-09-18T09:41:26;1.63;;;0.30;;
48987;SDS011;34799;51.440;-2.534;2023-09-18T09:43:58;2.63;;;0.20;;
48987;SDS011;34799;51.440;-2.534;2023-09-18T09:46:26;2.75;;;0.30;;
48987;SDS011;34799;51.440;-2.534;2023-09-18T09:48:58;1.02;;;0.30;;
48987;SDS011;34799;51.440;-2.534;2023-09-18T09:51:28;1.60;;;0.20;;
48987;SDS011;34799;51.440;-2.534;2023-09-18T09:53:56;2.42;;;0.30;;
48987;SDS011;34799;51.440;-2.534;2023-09-18T09:59:29;4.70;;;0.40;;
48987;SDS011;34799;51.440;-2.534;2023-09-18T10:02:00;3.50;;;0.50;;
48987;SDS011;34799;51.440;-2.534;2023-09-18T10:04:29;3.83;;;0.50;;
48987;SDS011;34799;51.440;-2.534;2023-09-18T10:07:07;1.20;;;0.30;;
48987;SDS011;34799;51.440;-2.534;2023-09-18T10:09:36;2.33;;;0.40;;
48987;SDS011;34799;51.440;-2.534;2023-09-18T10:12:10;3.20;;;0.65;;
48987;SDS011;34799;51.440;-2.534;2023-09-18T10:14:42;4.72;;;0.80;;
48987;SDS011;34799;51.440;-2.534;2023-09-18T10:17:21;3.35;;;0.57;;
48987;SDS011;34799;51.440;-2.534;2023-09-18T10:19:54;3.15;;;0.70;;
48987;SDS011;34799;51.440;-2.534;2023-09-18T10:22:30;5.40;;;0.47;;
48987;SDS011;34799;51.440;-2.534;2023-09-18T10:25:11;1.92;;;0.60;;
48987;SDS011;34799;51.440;-2.534;2023-09-18T10:27:49;5.72;;;0.50;;
48987;SDS011;34799;51.440;-2.534;2023-09-18T10:30:25;3.92;;;1.20;;
48987;SDS011;34799;51.440;-2.534;2023-09-18T10:32:53;3.47;;;0.60;;
48987;SDS011;34799;51.440;-2.534;2023-09-18T10:35:21;0.98;;;0.50;;
48987;SDS011;34799;51.440;-2.534;2023-09-18T10:37:49;1.20;;;0.40;;
48987;SDS011;34799;51.440;-2.534;2023-09-18T10:40:21;1.77;;;0.30;;
48987;SDS011;34799;51.440;-2.534;2023-09-18T10:42:50;1.67;;;0.50;;
48987;SDS011;34799;51.440;-2.534;2023-09-18T10:45:20;1.40;;;1.00;;
48987;SDS011;34799;51.440;-2.534;2023-09-18T10:47:48;4.40;;;1.80;;
48987;SDS011;34799;51.440;-2.534;2023-09-18T10:50:22;4.00;;;2.60;;
48987;SDS011;34799;51.440;-2.534;2023-09-18T10:52:54;6.07;;;2.53;;
48987;SDS011;34799;51.440;-2.534;2023-09-18T10:55:23;3.92;;;2.97;;
48987;SDS011;34799;51.440;-2.534;2023-09-18T10:57:53;5.70;;;3.13;;
48987;SDS011;34799;51.440;-2.534;2023-09-18T11:00:24;6.10;;;3.58;;
48987;SDS011;34799;51.440;-2.534;2023-09-18T11:02:52;6.55;;;3.85;;
48987;SDS011;34799;51.440;-2.534;2023-09-18T11:05:35;6.20;;;3.60;;
48987;SDS011;34799;51.440;-2.534;2023-09-18T11:08:23;4.65;;;2.72;;
48987;SDS011;34799;51.440;-2.534;2023-09-18T11:10:55;6.80;;;2.35;;
48987;SDS011;34799;51.440;-2.534;2023-09-18T11:13:52;3.95;;;2.55;;
48987;SDS011;34799;51.440;-2.534;2023-09-18T11:21:27;2.97;;;2.00;;
48987;SDS011;34799;51.440;-2.534;2023-09-18T11:23:59;4.22;;;1.83;;
48987;SDS011;34799;51.440;-2.534;2023-09-18T11:26:34;3.80;;;1.70;;
48987;SDS011;34799;51.440;-2.534;2023-09-18T11:29:04;3.90;;;1.70;;
48987;SDS011;34799;51.440;-2.534;2023-09-18T11:36:49;2.70;;;1.08;;
48987;SDS011;34799;51.440;-2.534;2023-09-18T11:39:35;3.25;;;1.02;;
48987;SDS011;34799;51.440;-2.534;2023-09-18T11:45:00;2.80;;;1.00;;
48987;SDS011;34799;51.440;-2.534;2023-09-18T11:47:28;5.03;;;0.70;;
48987;SDS011;34799;51.440;-2.534;2023-09-18T11:49:58;3.05;;;0.70;;
48987;SDS011;34799;51.440;-2.534;2023-09-18T11:52:27;3.15;;;0.47;;
48987;SDS011;34799;51.440;-2.534;2023-09-18T11:54:57;4.70;;;0.52;;
48987;SDS011;34799;51.440;-2.534;2023-09-18T11:57:26;1.55;;;0.40;;
48987;SDS011;34799;51.440;-2.534;2023-09-18T11:59:55;4.57;;;0.40;;
48987;SDS011;34799;51.440;-2.534;2023-09-18T12:02:26;3.22;;;0.70;;
48987;SDS011;34799;51.440;-2.534;2023-09-18T12:04:55;4.53;;;0.80;;
48987;SDS011;34799;51.440;-2.534;2023-09-18T12:07:23;1.40;;;0.40;;
48987;SDS011;34799;51.440;-2.534;2023-09-18T12:09:51;2.08;;;0.40;;
48987;SDS011;34799;51.440;-2.534;2023-09-18T12:12:21;1.95;;;0.40;;
48987;SDS011;34799;51.440;-2.534;2023-09-18T12:14:51;2.88;;;0.47;;
48987;SDS011;34799;51.440;-2.534;2023-09-18T12:17:19;2.95;;;0.50;;
48987;SDS011;34799;51.440;-2.534;2023-09-18T12:19:50;3.38;;;0.40;;
48987;SDS011;34799;51.440;-2.534;2023-09-18T12:22:38;3.97;;;0.75;;
48987;SDS011;34799;51.440;-2.534;2023-09-18T12:25:23;3.30;;;0.35;;
48987;SDS011;34799;51.440;-2.534;2023-09-18T12:27:52;0.98;;;0.40;;
48987;SDS011;34799;51.440;-2.534;2023-09-18T12:30:20;5.00;;;1.20;;
48987;SDS011;34799;51.440;-2.534;2023-09-18T12:32:49;2.42;;;0.45;;
48987;SDS011;34799;51.440;-2.534;2023-09-18T12:35:18;2.28;;;0.45;;
48987;SDS011;34799;51.440;-2.534;2023-09-18T12:37:46;2.60;;;0.68;;
48987;SDS011;34799;51.440;-2.534;2023-09-18T12:42:49;0.85;;;0.30;;
48987;SDS011;34799;51.440;-2.534;2023-09-18T12:45:17;3.83;;;0.95;;
48987;SDS011;34799;51.440;-2.534;2023-09-18T12:47:44;4.43;;;0.40;;
48987;SDS011;34799;51.440;-2.534;2023-09-18T12:50:12;3.67;;;0.85;;
48987;SDS011;34799;51.440;-2.534;2023-09-18T12:52:40;4.43;;;0.40;;
48987;SDS011;34799;51.440;-2.534;2023-09-18T12:55:08;2.88;;;0.20;;
48987;SDS011;34799;51.440;-2.534;2023-09-18T12:57:46;3.17;;;0.30;;
48987;SDS011;34799;51.440;-2.534;2023-09-18T13:00:13;0.85;;;0.20;;
48987;SDS011;34799;51.440;-2.534;2023-09-18T13:02:46;4.90;;;0.20;;
48987;SDS011;34799;51.440;-2.534;2023-09-18T13:05:18;4.43;;;0.20;;
48987;SDS011;34799;51.440;-2.534;2023-09-18T13:07:46;1.92;;;0.30;;
48987;SDS011;34799;51.440;-2.534;2023-09-18T13:10:17;1.95;;;0.17;;
48987;SDS011;34799;51.440;-2.534;2023-09-18T13:12:46;1.90;;;0.10;;
48987;SDS011;34799;51.440;-2.534;2023-09-18T13:18:00;3.88;;;0.30;;
48987;SDS011;34799;51.440;-2.534;2023-09-18T13:20:36;1.50;;;0.10;;
48987;SDS011;34799;51.440;-2.534;2023-09-18T13:23:04;3.80;;;0.55;;
48987;SDS011;34799;51.440;-2.534;2023-09-18T13:28:02;0.95;;;0.13;;
48987;SDS011;34799;51.440;-2.534;2023-09-18T13:30:31;1.63;;;0.10;;
48987;SDS011;34799;51.440;-2.534;2023-09-18T13:33:01;3.22;;;0.25;;
48987;SDS011;34799;51.440;-2.534;2023-09-18T13:35:30;1.40;;;0.22;;
48987;SDS011;34799;51.440;-2.534;2023-09-18T13:37:58;1.25;;;0.20;;
48987;SDS011;34799;51.440;-2.534;2023-09-18T13:40:25;3.40;;;0.40;;
48987;SDS011;34799;51.440;-2.534;2023-09-18T13:42:53;3.95;;;0.20;;
48987;SDS011;34799;51.440;-2.534;2023-09-18T13:45:20;1.40;;;0.25;;
48987;SDS011;34799;51.440;-2.534;2023-09-18T13:47:47;1.95;;;0.10;;
48987;SDS011;34799;51.440;-2.534;2023-09-18T13:50:16;3.55;;;0.20;;
48987;SDS011;34799;51.440;-2.534;2023-09-18T13:52:43;4.60;;;0.47;;
48987;SDS011;34799;51.440;-2.534;2023-09-18T13:55:10;1.88;;;0.20;;
48987;SDS011;34799;51.440;-2.534;2023-09-18T13:57:38;2.03;;;0.30;;
48987;SDS011;34799;51.440;-2.534;2023-09-18T14:00:06;4.75;;;0.50;;
48987;SDS011;34799;51.440;-2.534;2023-09-18T14:02:38;3.55;;;0.20;;
48987;SDS011;34799;51.440;-2.534;2023-09-18T14:05:06;3.42;;;0.28;;
48987;SDS011;34799;51.440;-2.534;2023-09-18T14:07:37;3.33;;;0.40;;
48987;SDS011;34799;51.440;-2.534;2023-09-18T14:10:07;3.20;;;0.40;;
48987;SDS011;34799;51.440;-2.534;2023-09-18T14:12:37;8.27;;;0.50;;
48987;SDS011;34799;51.440;-2.534;2023-09-18T14:15:07;3.90;;;0.40;;
48987;SDS011;34799;51.440;-2.534;2023-09-18T14:17:36;4.20;;;0.40;;
48987;SDS011;34799;51.440;-2.534;2023-09-18T14:20:03;6.03;;;0.57;;
48987;SDS011;34799;51.440;-2.534;2023-09-18T14:22:34;6.03;;;0.43;;
48987;SDS011;34799;51.440;-2.534;2023-09-18T14:25:02;4.57;;;0.47;;
48987;SDS011;34799;51.440;-2.534;2023-09-18T14:27:32;6.80;;;0.82;;
48987;SDS011;34799;51.440;-2.534;2023-09-18T14:30:02;6.18;;;0.90;;
48987;SDS011;34799;51.440;-2.534;2023-09-18T14:32:34;6.15;;;0.40;;
48987;SDS011;34799;51.440;-2.534;2023-09-18T14:35:05;5.05;;;0.70;;
48987;SDS011;34799;51.440;-2.534;2023-09-18T14:37:34;10.32;;;0.80;;
48987;SDS011;34799;51.440;-2.534;2023-09-18T14:40:02;7.03;;;0.45;;
48987;SDS011;34799;51.440;-2.534;2023-09-18T14:42:30;3.45;;;0.38;;
48987;SDS011;34799;51.440;-2.534;2023-09-18T14:44:57;6.38;;;0.68;;
48987;SDS011;34799;51.440;-2.534;2023-09-18T14:47:24;7.97;;;0.60;;
48987;SDS011;34799;51.440;-2.534;2023-09-18T14:49:52;3.70;;;0.40;;
48987;SDS011;34799;51.440;-2.534;2023-09-18T14:52:20;9.27;;;0.70;;
48987;SDS011;34799;51.440;-2.534;2023-09-18T14:54:50;4.03;;;0.50;;
48987;SDS011;34799;51.440;-2.534;2023-09-18T14:57:17;6.35;;;0.50;;
48987;SDS011;34799;51.440;-2.534;2023-09-18T14:59:44;8.93;;;0.65;;
48987;SDS011;34799;51.440;-2.534;2023-09-18T15:02:14;7.22;;;0.70;;
48987;SDS011;34799;51.440;-2.534;2023-09-18T15:04:42;7.93;;;1.08;;
48987;SDS011;34799;51.440;-2.534;2023-09-18T15:07:10;4.47;;;0.60;;
48987;SDS011;34799;51.440;-2.534;2023-09-18T15:09:37;6.00;;;0.70;;
48987;SDS011;34799;51.440;-2.534;2023-09-18T15:12:05;5.25;;;0.70;;
48987;SDS011;34799;51.440;-2.534;2023-09-18T15:14:35;10.02;;;1.27;;